x

South Michigan - 43nm East Southeast Of Milwaukee, Wi (45007) Wave Buoy

6:50am - Thu 23rd Oct 2014 All times are CDT. -5 hours from GMT.

  • Sig Wave height 2.0ft
  • Swell Direction
  • Peak Period 4s
  • Average Period 3s
  • Wind
    16mph, 18mph gusts
  • Sea Temp 54°f
  • Air Temp 50°f
  • Sea Pressure 1023.6mb
  • South Michigan - 43nm East Southeast Of Milwaukee, Wi
  • South Michigan - 43nm East Southeast Of Milwaukee, Wi

More Historic Weather Station data

Upgrade to MSW Pro to gain access to the past 30 days of data for over 8000 Wavebouys and Weather Stations around the globe.

Join Pro

Comparision Forecast

View Surf forecast
   
Thu 10/23 6:50am 2ft 4s 3s 16 18 mph 1023.6mb 54f 50f
5:50am 2ft 4s 3s 16 18 mph 1023.5mb 54f 50f
4:50am 2ft 4s 3s 13 16 mph 1023.7mb 54f 50f
3:50am 1.6ft 4s 3s 13 16 mph 1024.2mb 54f 50f
2:50am  -   -   -  13 16 mph 1024.5mb 54f 50f
1:50am 1.3ft 3s 3s 13 16 mph 1024.8mb 54f 50f
12:50am 1ft 3s 3s 13 16 mph 1025.2mb 54f 50f
Wed 10/22 11:50pm 1ft 3s 3s 13 16 mph 1025.5mb 54f 50f
10:50pm 1ft 3s 3s 11 16 mph 1025.5mb 54f 51f
9:50pm 0.7ft  -  3s 11 13 mph 1025.7mb 54f 50f
8:50pm 0.7ft  -  4s 9 11 mph 1025.6mb 54f 49f
7:50pm 0.7ft  -  4s 7 9 mph 1025.8mb 54f 48f
6:50pm 0.7ft  -  3s 4 7 mph 1026.2mb 54f 47f
5:50pm 0.7ft  -  3s 4 7 mph 1026.3mb 55f 47f
4:50pm 0.7ft  -  3s 4 7 mph 1026.7mb 55f 47f
3:50pm 1ft 4s 3s 2 4 mph 1027.5mb 55f 47f
2:50pm 1ft 5s 3s 4 7 mph 1027.8mb 55f 47f
1:50pm 1.3ft 5s 4s 2 4 mph 1028.2mb 55f 47f
12:50pm 1.3ft 3s 3s 4 7 mph 1028.8mb 55f 47f
11:50am 1.3ft 5s 4s 4 7 mph 1029.3mb 54f 46f
10:50am 1.6ft 5s 4s 7 9 mph 1029.4mb 54f 47f
9:50am 1.6ft 4s 4s 7 9 mph 1029.1mb 54f 47f
8:50am 2.5ft 4s 4s 9 11 mph 1028.6mb 54f 47f
7:50am 2.5ft 6s 4s 7 9 mph 1028.4mb 54f 47f
6:50am 2.5ft 4s 4s 9 11 mph 1028mb 54f 46f
5:50am 3ft 4s 4s 11 13 mph 1027.4mb 54f 46f
4:50am 3.5ft 6s 4s 11 13 mph 1026.8mb 54f 46f
3:50am 3.5ft 5s 4s 13 16 mph 1026.4mb 54f 47f
2:50am 3.5ft 5s 4s 18 20 mph 1025.6mb 54f 48f
1:50am 3.5ft 6s 5s 18 22 mph 1025mb 54f 49f
12:50am 4ft 6s 5s 13 16 mph 1024.8mb 54f 50f
Tue 10/21 11:50pm 4.5ft 7s 5s 16 18 mph 1024.7mb 54f 50f
10:50pm 4.5ft 6s 5s 13 16 mph 1024.9mb 54f 50f
9:50pm 4.5ft 6s 5s 16 18 mph 1024.9mb 54f 49f
8:50pm 5ft 6s 5s 16 20 mph 1024.5mb 54f 49f
7:50pm 5ft 7s 5s 16 20 mph 1023.9mb 54f 49f
6:50pm 5ft 6s 5s 18 20 mph 1023.4mb 54f 49f
5:50pm 4.5ft 7s 5s 18 22 mph 1022.8mb 54f 49f
4:50pm 5ft 7s 5s 18 22 mph 1022.4mb 54f 49f
3:50pm 5ft 7s 5s 20 25 mph 1022.1mb 54f 49f
2:50pm 5ft 7s 5s 18 22 mph 1021.9mb 54f 50f
1:50pm 6ft 7s 5s 20 25 mph 1021.5mb 54f 50f
12:50pm 6ft 7s 5s 18 22 mph 1021.5mb 54f 49f
11:50am 6ft 7s 5s 20 25 mph 1021.4mb 54f 50f
10:50am 6.5ft 7s 5s 22 27 mph 1020.8mb 54f 50f
9:50am 6ft 7s 5s 22 27 mph 1020.1mb 54f 51f
8:50am 6ft 7s 5s 25 29 mph 1019.5mb 54f 50f
7:50am 6ft 7s 5s 25 27 mph 1018.7mb 54f 51f
6:50am 5.5ft 7s 5s 25 27 mph 1018.1mb 54f 50f
5:50am 5.5ft 7s 5s 25 29 mph 1017.5mb 54f 49f
4:50am 5ft 6s 5s 22 27 mph 1016.9mb 54f 49f
3:50am 5ft 6s 5s 22 25 mph 1016.4mb 54f 49f
2:50am 4.5ft 6s 5s 22 27 mph 1016mb 54f 51f
1:50am 4ft 6s 4s 20 25 mph 1015.6mb 54f 51f
12:50am 3.5ft 5s 4s 20 22 mph 1015.4mb 54f 51f
Mon 10/20 11:50pm 3.5ft 6s 4s 20 27 mph 1015.2mb 54f 51f
10:50pm 3.5ft 5s 4s 20 22 mph 1015.3mb 55f 52f
9:50pm 3ft 5s 4s 20 22 mph 1015.1mb 55f 53f
8:50pm 3.5ft 5s 4s 13 18 mph 1015mb 55f 52f
7:50pm 3.5ft 5s 4s 20 25 mph 1014.8mb 55f 51f
6:50pm 3.5ft 5s 4s 18 20 mph 1014.1mb 55f 53f
5:50pm 3.5ft 4s 4s 20 22 mph 1013.2mb 55f 53f
4:50pm 3.5ft 5s 4s 20 22 mph 1012.3mb 55f 53f
3:50pm 3ft 4s 4s 20 25 mph 1011.6mb 55f 53f
2:50pm 2.5ft 4s 4s 20 22 mph 1010.9mb 55f 53f
1:50pm 2ft 4s 3s 18 22 mph 1010.6mb 55f 53f
12:50pm 2ft 3s 3s 16 18 mph 1010.2mb 55f 53f
11:50am 2ft 5s 4s 13 18 mph 1010.2mb 55f 53f
10:50am 2.5ft 5s 4s 11 16 mph 1010.2mb 55f 54f
9:50am 3ft 5s 4s 11 13 mph 1010.2mb 55f 53f
8:50am 3.5ft 6s 4s 9 11 mph 1009.6mb 55f 53f
7:50am 3.5ft 6s 5s 13 16 mph 1009.2mb 55f 53f
6:50am 4ft 6s 5s 13 16 mph 1008.7mb 55f 54f
5:50am 4.5ft 6s 5s 16 20 mph 1008.3mb 55f 54f
4:50am 4.5ft 6s 5s 18 22 mph 1008.6mb 55f 55f
3:50am 4.5ft 6s 5s 20 25 mph 1008.9mb 55f 55f
2:50am 4.5ft 6s 5s 22 29 mph 1009.1mb 55f 55f
1:50am 4.5ft 6s 5s 25 29 mph 1009.7mb 55f 56f
12:50am 4.5ft 6s 5s 22 27 mph 1010.8mb 55f 55f
Sun 10/19 11:50pm 4.5ft 6s  -  22 27 mph 1011.4mb 55f 55f
10:50pm 5ft 6s 5s 22 29 mph 1012.2mb 55f 55f
9:50pm 5ft 6s 5s 25 27 mph 1012.7mb 55f 55f
8:50pm 4.5ft 5s 4s 25 31 mph 1012.5mb 55f 54f
7:50pm 4.5ft 5s 4s 25 29 mph 1013.5mb 55f 54f
6:50pm 4.5ft 5s 4s 25 29 mph 1014.2mb 55f 54f
5:50pm 4.5ft 5s 4s 25 29 mph 1014.5mb 55f 54f
4:50pm 3.5ft 5s 4s 22 27 mph 1015.9mb 55f 53f
3:50pm 3.5ft 5s 4s 20 25 mph 1016.9mb 55f 52f
2:50pm 3.5ft 5s 4s 20 25 mph 1017.7mb 55f 51f
1:50pm 3ft 5s 4s 18 22 mph 1019.1mb 55f 50f
12:50pm 2.5ft 4s 4s 18 22 mph 1020.3mb 55f 49f